Time;durP1;ratioP1;P1;durP2;ratioP2;P2;SDS_P1;SDS_P2;PMS_P1;PMS_P2;Temp;Humidity;BMP_temperature;BMP_pressure;BME280_temperature;BME280_humidity;BME280_pressure;Samples;Min_cycle;Max_cycle;Signal;HPM_P1;HPM_P2
2022/03/04 00:01:24;;;;;;;10.73;9.10;;;;;;;;;;5068264;28;20223;-86
2022/03/04 00:03:51;;;;;;;14.20;10.10;;;;;;;;;;5067433;28;20272;-85
2022/03/04 00:06:19;;;;;;;12.73;8.68;;;;;;;;;;5072182;28;20290;-86
2022/03/04 00:08:46;;;;;;;17.17;9.65;;;;;;;;;;5071411;28;20282;-86
2022/03/04 00:11:13;;;;;;;17.63;10.25;;;;;;;;;;5071596;28;20223;-86
2022/03/04 00:13:41;;;;;;;15.77;9.43;;;0.10;61.10;;;;;;5071747;28;20191;-86
2022/03/04 00:16:09;;;;;;;13.68;10.18;;;;;;;;;;5070854;28;20231;-86
2022/03/04 00:18:36;;;;;;;15.15;9.70;;;;;;;;;;5071426;28;20195;-86
2022/03/04 00:21:04;;;;;;;11.77;8.82;;;0.00;61.10;;;;;;5071492;28;20237;-86
2022/03/04 00:23:31;;;;;;;15.10;9.95;;;;;;;;;;5071571;28;20199;-86
2022/03/04 00:25:58;;;;;;;15.73;10.80;;;0.00;61.30;;;;;;5067308;28;20223;-87
2022/03/04 00:28:25;;;;;;;14.05;9.50;;;;;;;;;;5071622;28;20200;-86
2022/03/04 00:30:53;;;;;;;14.00;10.27;;;-0.10;61.80;;;;;;5071446;28;20604;-86
2022/03/04 00:33:20;;;;;;;16.70;11.02;;;;;;;;;;5055378;28;20204;-86
2022/03/04 00:35:48;;;;;;;14.02;8.93;;;;;;;;;;5070044;28;20199;-86
2022/03/04 00:38:14;;;;;;;12.77;8.70;;;-0.10;61.70;;;;;;5069745;28;20219;-87
2022/03/04 00:40:42;;;;;;;14.93;9.13;;;;;;;;;;5071342;28;20685;-86
2022/03/04 00:43:09;;;;;;;14.98;10.45;;;-0.20;62.30;;;;;;5071378;28;20294;-87
2022/03/04 00:45:37;;;;;;;14.13;10.85;;;;;;;;;;5071273;28;20199;-86
2022/03/04 00:48:05;;;;;;;14.85;9.73;;;-0.30;61.90;;;;;;5071096;28;20206;-86
2022/03/04 00:50:32;;;;;;;15.70;9.98;;;;;;;;;;5071680;28;20204;-86
2022/03/04 00:53:01;;;;;;;11.77;9.15;;;;;;;;;;5071495;28;20306;-87
2022/03/04 00:55:28;;;;;;;18.17;11.02;;;-0.30;63.00;;;;;;5070742;28;20307;-86
2022/03/04 00:57:55;;;;;;;14.65;10.40;;;;;;;;;;5070699;28;20858;-87
2022/03/04 01:00:22;;;;;;;13.43;10.25;;;;;;;;;;5071157;28;20203;-86
2022/03/04 01:02:49;;;;;;;13.90;9.82;;;;;;;;;;5066620;28;20234;-86
2022/03/04 01:05:18;;;;;;;16.73;9.70;;;-0.30;62.40;;;;;;5064152;28;20227;-86
2022/03/04 01:07:45;;;;;;;13.95;10.90;;;;;;;;;;5071647;28;20836;-86
2022/03/04 01:10:13;;;;;;;18.38;10.93;;;;;;;;;;5070616;28;20570;-87
2022/03/04 01:12:43;;;;;;;15.70;10.43;;;;;;;;;;5070980;28;20198;-86
2022/03/04 01:15:10;;;;;;;10.90;8.32;;;-0.50;63.80;;;;;;5068185;28;20191;-87
2022/03/04 01:17:38;;;;;;;18.17;10.95;;;;;;;;;;5070858;28;20243;-87
2022/03/04 01:20:09;;;;;;;13.80;10.07;;;-0.50;63.90;;;;;;5070710;28;20294;-87
2022/03/04 01:22:38;;;;;;;13.50;9.80;;;-0.50;75.20;;;;;;5070958;28;20326;-86
2022/03/04 01:25:07;;;;;;;14.88;10.50;;;-0.70;73.80;;;;;;5071197;28;20195;-87
2022/03/04 01:27:35;;;;;;;19.60;11.25;;;-0.60;65.00;;;;;;5071412;28;20237;-87
2022/03/04 01:30:05;;;;;;;13.50;9.65;;;-0.60;66.20;;;;;;5071120;28;20230;-87
2022/03/04 01:32:32;;;;;;;23.98;12.70;;;-0.50;65.80;;;;;;5077564;28;20214;-86
2022/03/04 01:34:59;;;;;;;15.23;9.52;;;;;;;;;;5079093;28;20195;-86
2022/03/04 01:37:27;;;;;;;14.90;10.75;;;;;;;;;;5074746;28;20227;-87
2022/03/04 01:39:55;;;;;;;13.68;10.60;;;-0.60;64.10;;;;;;5071653;28;20283;-86
2022/03/04 01:42:22;;;;;;;16.48;10.05;;;-0.70;64.60;;;;;;5071181;28;20206;-86
2022/03/04 01:44:49;;;;;;;16.65;10.55;;;;;;;;;;5070380;28;20199;-87
2022/03/04 01:47:16;;;;;;;19.17;10.00;;;-0.70;63.40;;;;;;5070600;28;20237;-86
2022/03/04 01:49:44;;;;;;;13.40;9.98;;;;;;;;;;5070139;28;20191;-86
2022/03/04 01:52:11;;;;;;;15.57;11.10;;;-0.60;77.40;;;;;;5070530;28;20242;-87
2022/03/04 01:54:38;;;;;;;15.70;12.10;;;;;;;;;;5070821;28;20302;-86
2022/03/04 01:57:06;;;;;;;18.25;11.25;;;-0.60;64.40;;;;;;5070639;28;20230;-87
2022/03/04 01:59:34;;;;;;;16.52;11.30;;;;;;;;;;5070095;28;20211;-87
2022/03/04 02:02:01;;;;;;;14.75;10.55;;;;;;;;;;5070424;28;20199;-86
2022/03/04 02:04:28;;;;;;;17.30;9.77;;;;;;;;;;5057718;28;20206;-87
2022/03/04 02:06:55;;;;;;;10.07;8.23;;;;;;;;;;5070563;28;20218;-87
2022/03/04 02:09:23;;;;;;;18.27;10.55;;;-0.80;64.60;;;;;;5069680;28;20203;-87
2022/03/04 02:11:52;;;;;;;16.92;11.73;;;-0.90;67.00;;;;;;5070390;28;20200;-86
2022/03/04 02:14:21;;;;;;;14.35;11.02;;;-1.00;67.30;;;;;;5070097;28;20187;-86
2022/03/04 02:16:50;;;;;;;13.43;10.13;;;-1.00;68.00;;;;;;5065140;28;20222;-87
2022/03/04 02:19:20;;;;;;;14.10;11.20;;;-1.00;69.10;;;;;;5070291;28;20199;-87
2022/03/04 02:21:52;;;;;;;15.40;11.43;;;-1.10;69.60;;;;;;5070116;28;20199;-87
2022/03/04 02:24:20;;;;;;;17.75;11.05;;;-1.10;68.90;;;;;;5069749;28;20196;-87
2022/03/04 02:26:47;;;;;;;20.20;11.20;;;-1.00;68.20;;;;;;5067490;28;20664;-87
2022/03/04 02:29:14;;;;;;;15.68;10.15;;;-1.00;67.90;;;;;;5069633;28;20272;-87
2022/03/04 02:31:42;;;;;;;11.65;10.45;;;-1.30;73.00;;;;;;5069712;28;20600;-87
2022/03/04 02:34:09;;;;;;;18.17;10.48;;;;;;;;;;5069519;28;20249;-87
2022/03/04 02:36:38;;;;;;;19.38;12.35;;;-1.10;67.00;;;;;;5068946;28;20305;-86
2022/03/04 02:39:07;;;;;;;18.23;12.20;;;-1.10;67.70;;;;;;5069269;28;20199;-87
2022/03/04 02:41:35;;;;;;;16.13;10.57;;;-1.20;68.30;;;;;;5070283;28;20200;-86
2022/03/04 02:44:02;;;;;;;14.52;11.23;;;-0.70;68.70;;;;;;5069987;28;20199;-87
2022/03/04 02:46:29;;;;;;;17.10;10.55;;;-1.20;68.10;;;;;;5069497;28;20223;-87
2022/03/04 02:48:56;;;;;;;14.93;10.30;;;-1.10;80.50;;;;;;5069581;28;20265;-87
2022/03/04 02:51:23;;;;;;;17.50;11.00;;;-1.10;67.70;;;;;;5069548;28;20201;-86
2022/03/04 02:53:51;;;;;;;12.57;10.80;;;-1.20;68.10;;;;;;5069448;28;20677;-87
2022/03/04 02:56:20;;;;;;;19.73;12.10;;;-1.30;68.30;;;;;;5068733;28;20298;-86
2022/03/04 02:58:47;;;;;;;13.70;10.27;;;;;;;;;;5069226;28;20872;-86
2022/03/04 03:01:14;;;;;;;20.60;11.55;;;-1.30;68.80;;;;;;5068859;28;20292;-86
2022/03/04 03:03:41;;;;;;;17.30;10.85;;;;;;;;;;5068552;28;20604;-86
2022/03/04 03:06:09;;;;;;;17.58;11.00;;;;;;;;;;5068749;28;20199;-87
2022/03/04 03:08:36;;;;;;;16.90;11.00;;;;;;;;;;5068680;28;20215;-86
2022/03/04 03:11:04;;;;;;;16.30;10.98;;;-1.30;67.70;;;;;;5068721;28;20563;-87
2022/03/04 03:13:33;;;;;;;18.30;11.52;;;-1.30;68.40;;;;;;5069170;28;20227;-86
2022/03/04 03:16:00;;;;;;;16.55;11.45;;;;;;;;;;5069034;28;20226;-87
2022/03/04 03:18:27;;;;;;;13.98;10.80;;;-1.40;67.60;;;;;;5068157;28;20256;-87
2022/03/04 03:20:54;;;;;;;15.07;11.38;;;;;;;;;;5068626;28;20666;-87
2022/03/04 03:23:21;;;;;;;15.98;10.95;;;;;;;;;;5068807;28;20252;-87
2022/03/04 03:25:49;;;;;;;17.30;10.48;;;-1.40;68.70;;;;;;5068759;28;20199;-87
2022/03/04 03:28:15;;;;;;;15.77;10.40;;;-1.40;70.90;;;;;;5069515;28;20195;-86
2022/03/04 03:30:44;;;;;;;17.38;10.70;;;-0.30;71.40;;;;;;5069313;28;20253;-87
2022/03/04 03:33:11;;;;;;;18.85;11.82;;;;;;;;;;5051777;28;20187;-86
2022/03/04 03:35:38;;;;;;;20.60;12.18;;;-1.50;70.00;;;;;;5070274;28;20233;-86
2022/03/04 03:38:06;;;;;;;17.05;12.38;;;;;;;;;;5072071;28;20280;-87
2022/03/04 03:40:32;;;;;;;21.00;12.25;;;-1.60;70.40;;;;;;5072598;28;20210;-87
2022/03/04 03:42:59;;;;;;;20.83;11.60;;;-1.60;70.40;;;;;;5072685;28;20328;-86
2022/03/04 03:45:26;;;;;;;17.10;12.15;;;-1.50;70.20;;;;;;5072071;28;20203;-87
2022/03/04 03:47:55;;;;;;;18.23;12.27;;;-1.50;74.80;;;;;;5072621;28;20285;-88
2022/03/04 03:50:22;;;;;;;17.40;11.02;;;;;;;;;;5072065;28;20206;-88
2022/03/04 03:52:49;;;;;;;16.55;10.88;;;;;;;;;;5072031;28;20654;-86
2022/03/04 03:55:16;;;;;;;13.63;10.35;;;-1.60;69.30;;;;;;5072362;28;20206;-87
2022/03/04 03:57:43;;;;;;;13.68;10.55;;;;;;;;;;5072717;28;20233;-87
2022/03/04 04:00:11;;;;;;;17.08;11.35;;;-1.60;68.60;;;;;;5073001;28;20298;-87
2022/03/04 04:02:39;;;;;;;24.92;12.05;;;;;;;;;;5072687;28;20202;-86
2022/03/04 04:05:09;;;;;;;17.98;10.93;;;-1.60;68.80;;;;;;5071574;28;20192;-87
2022/03/04 04:07:37;;;;;;;16.70;11.68;;;;;;;;;;5072400;28;20199;-87
2022/03/04 04:10:04;;;;;;;15.45;10.77;;;;;;;;;;5066699;28;20244;-87
2022/03/04 04:12:32;;;;;;;15.82;11.13;;;;;;;;;;5070394;28;20536;-86
2022/03/04 04:14:59;;;;;;;17.13;12.45;;;;;;;;;;5071882;28;20187;-87
2022/03/04 04:17:26;;;;;;;16.50;11.18;;;;;;;;;;5072404;28;20219;-87
2022/03/04 04:19:54;;;;;;;19.30;12.35;;;;;;;;;;5071715;28;20727;-86
2022/03/04 04:22:22;;;;;;;19.40;13.70;;;-1.70;69.00;;;;;;5072005;28;20187;-87
2022/03/04 04:24:49;;;;;;;19.75;11.88;;;;;;;;;;5071686;28;20211;-87
2022/03/04 04:27:17;;;;;;;16.35;12.55;;;-1.70;68.40;;;;;;5072028;28;20207;-87
2022/03/04 04:29:44;;;;;;;24.67;12.77;;;;;;;;;;5072832;28;20203;-86
2022/03/04 04:32:11;;;;;;;17.42;11.73;;;;;;;;;;5071134;28;20192;-87
2022/03/04 04:34:38;;;;;;;18.92;12.70;;;;;;;;;;5071504;28;20199;-87
2022/03/04 04:37:06;;;;;;;16.83;12.75;;;;;;;;;;5071623;28;20196;-87
2022/03/04 04:39:34;;;;;;;21.17;12.25;;;-1.80;67.70;;;;;;5071558;28;20643;-87
2022/03/04 04:42:01;;;;;;;27.00;13.73;;;;;;;;;;5071610;28;20214;-87
2022/03/04 04:44:28;;;;;;;24.05;13.07;;;;;;;;;;5071521;28;20241;-86
2022/03/04 04:46:56;;;;;;;16.40;13.70;;;;;;;;;;5070353;28;20203;-86
2022/03/04 04:49:23;;;;;;;21.85;12.23;;;;;;;;;;5071650;28;20210;-87
2022/03/04 04:51:50;;;;;;;20.27;12.95;;;-1.80;67.60;;;;;;5070928;28;20199;-87
2022/03/04 04:54:17;;;;;;;18.17;13.50;;;;;;;;;;5071248;28;20815;-87
2022/03/04 04:56:46;;;;;;;17.65;13.10;;;-1.80;67.90;;;;;;5071568;28;20196;-87
2022/03/04 04:59:13;;;;;;;26.00;13.45;;;;;;;;;;5071338;28;20690;-86
2022/03/04 05:01:40;;;;;;;19.00;12.25;;;-1.80;83.80;;;;;;5071031;28;20191;-87
2022/03/04 05:04:09;;;;;;;14.70;11.35;;;;;;;;;;5070658;28;20206;-88
2022/03/04 05:06:36;;;;;;;16.70;12.70;;;;;;;;;;5067817;28;20223;-87
2022/03/04 05:09:03;;;;;;;21.90;12.30;;;;;;;;;;5071471;28;20202;-87
2022/03/04 05:11:30;;;;;;;18.55;12.18;;;;;;;;;;5071222;28;20231;-87
2022/03/04 05:13:59;;;;;;;17.80;11.23;;;-2.00;68.00;;;;;;5070380;28;20195;-87
2022/03/04 05:16:26;;;;;;;21.80;13.30;;;;;;;;;;5071527;28;20291;-88
2022/03/04 05:18:53;;;;;;;17.90;12.98;;;;;;;;;;5071078;28;20281;-87
2022/03/04 05:21:21;;;;;;;18.05;12.20;;;;;;;;;;5071565;28;20203;-87
2022/03/04 05:24:00;;;;;;;23.40;14.05;;;;;;;;;;5071392;28;20575;-88
2022/03/04 05:26:28;;;;;;;21.75;13.95;;;-1.30;84.40;;;;;;5077512;28;20266;-88
2022/03/04 05:28:55;;;;;;;21.65;12.93;;;;;;;;;;5078795;28;20298;-88
2022/03/04 05:31:23;;;;;;;24.65;14.85;;;-1.90;68.50;;;;;;5075468;28;20249;-87
2022/03/04 05:33:51;;;;;;;19.33;12.70;;;-2.00;68.90;;;;;;5070961;28;20202;-87
2022/03/04 05:36:19;;;;;;;21.88;13.60;;;;;;;;;;5070808;28;20309;-88
2022/03/04 05:38:46;;;;;;;25.00;19.83;;;-2.10;74.10;;;;;;5068486;28;20750;-87
2022/03/04 05:41:13;;;;;;;18.20;13.60;;;;;;;;;;5069342;28;20249;-87
2022/03/04 05:43:41;;;;;;;18.83;12.52;;;;;;;;;;5069394;28;20705;-87
2022/03/04 05:46:08;;;;;;;18.02;12.40;;;-2.30;76.40;;;;;;5069277;28;20195;-87
2022/03/04 05:48:36;;;;;;;18.35;12.50;;;-2.10;70.00;;;;;;5069757;28;20203;-86
2022/03/04 05:51:04;;;;;;;19.38;12.27;;;-1.90;71.30;;;;;;5070073;28;20196;-87
2022/03/04 05:53:31;;;;;;;20.88;14.48;;;-2.30;78.40;;;;;;5069284;28;20195;-87
2022/03/04 05:55:58;;;;;;;21.02;13.18;;;;;;;;;;5069906;28;20202;-87
2022/03/04 05:58:26;;;;;;;15.82;12.20;;;;;;;;;;5069848;28;20277;-88
2022/03/04 06:00:54;;;;;;;18.60;12.27;;;;;;;;;;5069341;28;20698;-88
2022/03/04 06:03:21;;;;;;;21.58;13.80;;;;;;;;;;5060999;28;20198;-87
2022/03/04 06:05:49;;;;;;;22.83;13.23;;;-2.30;71.10;;;;;;5066692;28;20203;-87
2022/03/04 06:08:17;;;;;;;23.38;13.82;;;;;;;;;;5069783;28;20922;-87
2022/03/04 06:10:44;;;;;;;20.55;12.48;;;;;;;;;;5066077;28;20227;-88
2022/03/04 06:13:12;;;;;;;19.50;13.57;;;;;;;;;;5065328;28;20802;-88
2022/03/04 06:15:39;;;;;;;19.30;13.65;;;;;;;;;;5068113;28;20608;-88
2022/03/04 06:18:06;;;;;;;19.73;13.55;;;;;;;;;;5068691;28;20234;-87
2022/03/04 06:20:33;;;;;;;21.27;14.27;;;;;;;;;;5068486;28;20614;-87
2022/03/04 06:23:02;;;;;;;19.17;13.13;;;-2.30;73.10;;;;;;5068826;28;20203;-87
2022/03/04 06:25:30;;;;;;;20.73;11.57;;;-0.20;77.50;;;;;;5068242;28;20200;-87
2022/03/04 06:27:58;;;;;;;17.73;12.43;;;-2.20;74.20;;;;;;5067809;28;20264;-87
2022/03/04 06:30:27;;;;;;;24.83;13.88;;;-2.10;73.60;;;;;;5068823;28;20203;-86
2022/03/04 06:33:30;;;;;;;22.08;12.75;;;-2.20;74.30;;;;;;5067995;28;20203;-88
2022/03/04 06:35:42;;;;;;;18.35;13.27;;;;;;;;;;5068639;28;20196;-87
2022/03/04 06:38:11;;;;;;;17.10;12.18;;;-2.20;75.10;;;;;;5068676;28;20218;-87
2022/03/04 06:40:39;;;;;;;18.58;13.10;;;-2.30;76.20;;;;;;5068445;28;20199;-87
2022/03/04 06:43:07;;;;;;;17.00;13.13;;;-2.20;76.80;;;;;;5068648;28;20594;-86
2022/03/04 06:45:35;;;;;;;24.63;13.45;;;-2.20;85.60;;;;;;5068489;28;20195;-86
2022/03/04 06:48:02;;;;;;;18.77;12.15;;;-2.30;77.70;;;;;;5068636;28;20219;-87
2022/03/04 06:50:29;;;;;;;18.65;14.38;;;;;;;;;;5068887;28;20202;-86
2022/03/04 06:52:57;;;;;;;19.85;13.90;;;-2.10;78.10;;;;;;5068509;28;20754;-87
2022/03/04 06:55:25;;;;;;;18.00;12.93;;;-2.00;91.70;;;;;;5068532;28;20666;-87
2022/03/04 06:57:54;;;;;;;20.58;13.23;;;-1.80;79.60;;;;;;5068105;28;20198;-87
2022/03/04 07:00:21;;;;;;;17.75;12.15;;;-2.10;78.80;;;;;;5067767;28;21265;-86
2022/03/04 07:02:48;;;;;;;19.77;13.10;;;;;;;;;;5069116;28;20743;-86
2022/03/04 07:05:16;;;;;;;22.77;13.00;;;;;;;;;;5063900;28;20776;-86
2022/03/04 07:07:43;;;;;;;23.40;13.77;;;-1.70;77.30;;;;;;5048569;28;20217;-87
2022/03/04 07:10:10;;;;;;;22.85;14.30;;;-1.50;77.40;;;;;;5063646;28;20187;-86
2022/03/04 07:12:39;;;;;;;20.95;13.52;;;-1.10;86.20;;;;;;5065323;28;20203;-86
2022/03/04 07:15:07;;;;;;;18.33;13.80;;;-1.20;79.80;;;;;;5068945;28;20282;-86
2022/03/04 07:17:34;;;;;;;22.30;13.60;;;-0.70;80.50;;;;;;5069335;28;20199;-86
2022/03/04 07:20:01;;;;;;;20.58;14.32;;;;;;;;;;5068961;28;20237;-86
2022/03/04 07:22:28;;;;;;;26.02;14.13;;;;;;;;;;5069331;28;20211;-86
2022/03/04 07:24:56;;;;;;;19.65;13.48;;;;;;;;;;5067128;28;20670;-87
2022/03/04 07:27:23;;;;;;;17.40;12.55;;;-0.20;87.50;;;;;;5069076;28;20222;-86
2022/03/04 07:29:51;;;;;;;16.23;12.90;;;-0.30;73.70;;;;;;5068445;28;20207;-86
2022/03/04 07:32:18;;;;;;;21.63;14.63;;;-0.40;74.20;;;;;;5069046;28;20192;-87
2022/03/04 07:34:45;;;;;;;19.65;13.23;;;;;;;;;;5068439;28;20199;-86
2022/03/04 07:37:13;;;;;;;20.15;14.75;;;;;;;;;;5068587;28;21001;-87
2022/03/04 07:39:40;;;;;;;20.35;14.20;;;;;;;;;;5067965;28;20211;-87
2022/03/04 07:42:07;;;;;;;18.02;12.40;;;-0.20;73.40;;;;;;5068403;28;20294;-86
2022/03/04 07:44:34;;;;;;;19.02;14.18;;;-0.10;73.80;;;;;;5068118;28;20207;-86
2022/03/04 07:47:03;;;;;;;26.17;15.38;;;0.00;73.10;;;;;;5068048;28;20238;-87
2022/03/04 07:49:30;;;;;;;21.38;12.98;;;0.00;73.80;;;;;;5063170;28;20289;-86
2022/03/04 07:51:57;;;;;;;21.77;15.00;;;0.20;73.20;;;;;;5068145;28;20215;-86
2022/03/04 07:54:24;;;;;;;19.80;15.10;;;0.30;72.30;;;;;;5067417;28;20227;-87
2022/03/04 07:56:52;;;;;;;20.73;15.60;;;;;;;;;;5053867;28;20207;-86
2022/03/04 07:59:19;;;;;;;17.92;13.45;;;1.00;85.10;;;;;;5056939;28;20242;-87
2022/03/04 08:01:46;;;;;;;23.08;13.73;;;0.50;70.30;;;;;;5064144;28;20681;-86
2022/03/04 08:04:14;;;;;;;21.42;14.38;;;0.50;69.20;;;;;;5067540;28;20278;-85
2022/03/04 08:06:41;;;;;;;23.75;15.38;;;0.60;69.60;;;;;;5067664;28;20276;-85
2022/03/04 08:09:09;;;;;;;26.58;16.52;;;;;;;;;;5068068;28;20211;-86
2022/03/04 08:11:36;;;;;;;25.52;15.50;;;0.80;68.40;;;;;;5068402;28;20195;-87
2022/03/04 08:14:03;;;;;;;23.83;15.43;;;;;;;;;;5067743;28;20206;-86
2022/03/04 08:16:30;;;;;;;26.05;16.05;;;1.00;67.80;;;;;;5067307;28;20283;-86
2022/03/04 08:18:57;;;;;;;21.73;14.90;;;;;;;;;;5067361;28;20943;-86
2022/03/04 08:21:26;;;;;;;27.35;15.43;;;1.30;73.10;;;;;;5067346;28;20214;-86
2022/03/04 08:23:53;;;;;;;24.33;14.55;;;1.30;67.50;;;;;;5070946;28;20328;-86
2022/03/04 08:26:20;;;;;;;25.08;14.35;;;2.70;68.30;;;;;;5071350;28;20744;-86
2022/03/04 08:28:47;;;;;;;27.38;14.38;;;1.90;66.20;;;;;;5071781;28;20242;-85
2022/03/04 08:31:14;;;;;;;32.85;14.43;;;;;;;;;;5067309;28;20265;-86
2022/03/04 08:33:43;;;;;;;20.15;14.32;;;2.40;59.70;;;;;;5071724;28;20211;-86
2022/03/04 08:36:10;;;;;;;23.05;12.80;;;2.90;69.60;;;;;;5071115;28;20372;-86
2022/03/04 08:38:39;;;;;;;24.13;14.85;;;3.00;58.30;;;;;;5071939;28;20227;-86
2022/03/04 08:41:06;;;;;;;24.58;13.38;;;2.90;58.20;;;;;;5070665;28;20195;-86
2022/03/04 08:43:34;;;;;;;23.17;15.30;;;3.00;57.60;;;;;;5071427;28;20208;-86
2022/03/04 08:46:01;;;;;;;30.50;16.25;;;3.10;64.10;;;;;;5070914;28;20203;-86
2022/03/04 08:48:28;;;;;;;24.15;14.95;;;3.10;57.50;;;;;;5070515;28;20249;-86
2022/03/04 08:50:55;;;;;;;21.00;14.90;;;3.30;57.30;;;;;;5070804;28;20252;-86
2022/03/04 08:53:22;;;;;;;24.27;16.55;;;3.30;56.80;;;;;;5071247;28;20257;-86
2022/03/04 08:55:51;;;;;;;24.85;16.40;;;4.20;57.90;;;;;;5066069;28;20300;-86
2022/03/04 08:58:18;;;;;;;22.25;14.80;;;3.70;57.00;;;;;;5070677;28;20219;-87
2022/03/04 09:00:45;;;;;;;19.25;14.23;;;3.80;65.10;;;;;;5070558;28;20281;-87
2022/03/04 09:03:12;;;;;;;26.55;15.75;;;3.90;66.80;;;;;;5062542;28;20291;-86
2022/03/04 09:05:39;;;;;;;20.95;15.35;;;3.90;56.40;;;;;;5067915;28;20725;-87
2022/03/04 09:08:06;;;;;;;28.90;16.77;;;4.10;56.50;;;;;;5069462;28;20195;-86
2022/03/04 09:10:33;;;;;;;23.00;15.48;;;4.10;56.30;;;;;;5071167;28;20248;-87
2022/03/04 09:13:01;;;;;;;22.70;15.55;;;4.10;55.30;;;;;;5072055;28;20253;-86
2022/03/04 09:15:28;;;;;;;23.75;15.73;;;4.10;62.10;;;;;;5072639;28;20231;-86
2022/03/04 09:17:55;;;;;;;23.60;16.58;;;4.40;58.30;;;;;;5072083;28;20265;-86
2022/03/04 09:20:22;;;;;;;23.30;16.02;;;4.40;55.60;;;;;;5071220;28;20250;-86
2022/03/04 09:22:51;;;;;;;23.65;15.70;;;4.50;54.40;;;;;;5071055;28;20195;-86
2022/03/04 09:25:19;;;;;;;24.73;14.82;;;4.50;54.70;;;;;;5069811;28;20301;-87
2022/03/04 09:27:46;;;;;;;21.83;15.20;;;4.60;55.20;;;;;;5070418;28;20207;-87
2022/03/04 09:30:15;;;;;;;23.92;15.85;;;4.90;56.60;;;;;;5069334;28;20203;-87
2022/03/04 09:32:42;;;;;;;26.15;14.93;;;5.00;59.40;;;;;;5069718;28;20294;-87
2022/03/04 09:35:09;;;;;;;24.95;16.30;;;5.00;53.40;;;;;;5069581;28;20199;-87
2022/03/04 09:37:37;;;;;;;25.38;16.05;;;4.80;59.00;;;;;;5070049;28;20264;-87
2022/03/04 09:40:08;;;;;;;26.08;15.18;;;4.90;52.50;;;;;;5064770;28;20248;-88
2022/03/04 09:42:35;;;;;;;22.15;15.50;;;4.80;52.20;;;;;;5049657;28;20200;-86
2022/03/04 09:45:03;;;;;;;26.33;15.10;;;5.00;52.00;;;;;;5067224;28;20195;-86
2022/03/04 09:47:36;;;;;;;23.42;15.98;;;6.00;57.80;;;;;;5069832;28;20207;-88
2022/03/04 09:50:06;;;;;;;20.55;14.98;;;5.30;52.30;;;;;;5066148;28;20223;-86
2022/03/04 09:52:33;;;;;;;21.75;14.75;;;5.20;51.80;;;;;;5067057;28;20203;-86
2022/03/04 09:55:00;;;;;;;22.17;14.73;;;5.50;52.30;;;;;;5068430;28;20230;-86
2022/03/04 09:57:27;;;;;;;30.92;15.82;;;5.30;51.30;;;;;;5049623;28;20204;-86
2022/03/04 09:59:57;;;;;;;31.77;16.27;;;5.50;50.70;;;;;;5049633;28;20714;-87
2022/03/04 10:02:25;;;;;;;19.48;15.30;;;5.90;51.50;;;;;;5067348;28;20199;-86
2022/03/04 10:05:03;;;;;;;23.50;15.73;;;5.50;50.60;;;;;;5069008;28;20206;-87
2022/03/04 10:07:41;;;;;;;23.73;15.40;;;5.40;51.00;;;;;;5068405;28;20533;-87
2022/03/04 10:10:12;;;;;;;23.70;15.73;;;5.30;51.70;;;;;;5068615;28;20214;-87
2022/03/04 10:12:55;;;;;;;26.88;17.40;;;5.40;50.40;;;;;;5049432;28;20302;-87
2022/03/04 10:15:23;;;;;;;23.63;15.88;;;5.70;50.60;;;;;;5054641;28;20878;-86
2022/03/04 10:18:01;;;;;;;20.10;14.15;;;5.70;49.60;;;;;;5067980;28;20249;-87
2022/03/04 10:20:39;;;;;;;21.98;14.85;;;5.70;49.30;;;;;;5068602;28;20226;-87
2022/03/04 10:23:20;;;;;;;23.67;15.10;;;5.70;50.00;;;;;;5068355;28;20294;-86
2022/03/04 10:25:49;;;;;;;22.42;15.60;;;6.50;50.60;;;;;;5068591;28;20195;-86
2022/03/04 10:28:17;;;;;;;22.52;15.15;;;5.60;48.40;;;;;;5068307;28;20199;-86
2022/03/04 10:30:49;;;;;;;25.73;15.73;;;6.30;53.70;;;;;;5067619;28;20219;-86
2022/03/04 10:33:18;;;;;;;23.33;15.20;;;5.70;47.90;;;;;;5068799;28;20223;-87
2022/03/04 10:35:50;;;;;;;22.08;14.93;;;5.90;53.60;;;;;;5068675;28;20207;-87
2022/03/04 10:38:22;;;;;;;25.40;14.65;;;5.70;53.50;;;;;;5068437;28;20202;-87
2022/03/04 10:40:49;;;;;;;20.92;15.02;;;5.80;47.60;;;;;;5057540;28;20255;-86
2022/03/04 10:43:23;;;;;;;27.80;15.52;;;5.90;55.50;;;;;;5063307;28;20286;-87
2022/03/04 10:46:00;;;;;;;19.92;15.25;;;5.90;47.90;;;;;;5061885;28;20215;-85
2022/03/04 10:48:27;;;;;;;21.65;15.18;;;5.90;48.80;;;;;;5067997;28;20252;-87
2022/03/04 10:50:58;;;;;;;22.45;15.57;;;6.10;49.00;;;;;;5068269;28;20692;-86
2022/03/04 10:53:25;;;;;;;20.38;14.80;;;6.20;50.10;;;;;;5067586;28;20278;-87
2022/03/04 10:55:55;;;;;;;22.35;15.45;;;6.10;48.40;;;;;;5067644;28;20282;-87
2022/03/04 10:58:23;;;;;;;24.95;16.42;;;6.70;55.10;;;;;;5068115;28;20206;-86
2022/03/04 11:00:52;;;;;;;22.08;14.55;;;6.10;48.40;;;;;;5067368;28;20223;-85
2022/03/04 11:03:21;;;;;;;20.38;16.02;;;6.10;48.00;;;;;;5059637;28;20663;-87
2022/03/04 11:05:49;;;;;;;21.88;14.75;;;6.20;47.80;;;;;;5061484;28;20596;-88
2022/03/04 11:08:20;;;;;;;21.08;14.98;;;6.20;47.70;;;;;;5067498;28;20219;-85
2022/03/04 11:10:48;;;;;;;25.00;17.40;;;6.10;47.60;;;;;;5073632;28;20203;-86
2022/03/04 11:13:16;;;;;;;24.25;14.80;;;6.00;48.10;;;;;;5075038;28;20202;-86
2022/03/04 11:15:45;;;;;;;20.75;15.10;;;6.00;48.60;;;;;;5067336;28;20210;-87
2022/03/04 11:18:16;;;;;;;22.50;15.95;;;6.20;47.60;;;;;;5067762;28;20203;-87
2022/03/04 11:20:45;;;;;;;25.15;15.73;;;6.20;53.70;;;;;;5061713;28;20224;-87
2022/03/04 11:23:21;;;;;;;25.58;15.13;;;6.20;47.00;;;;;;5058280;28;20192;-88
2022/03/04 11:25:55;;;;;;;29.23;16.40;;;6.50;47.40;;;;;;5056081;28;20203;-87
2022/03/04 11:28:27;;;;;;;20.05;14.57;;;6.30;53.80;;;;;;5061978;28;20195;-88
2022/03/04 11:31:00;;;;;;;23.02;15.18;;;6.40;54.20;;;;;;5067386;28;20203;-87
2022/03/04 11:33:30;;;;;;;22.90;14.60;;;6.40;46.90;;;;;;5067958;28;20540;-87
2022/03/04 11:36:09;;;;;;;23.92;14.93;;;6.40;47.00;;;;;;5067936;28;20214;-87
2022/03/04 11:39:09;;;;;;;25.27;15.95;;;6.40;47.20;;;;;;5067528;28;20253;-88
2022/03/04 11:41:39;;;;;;;21.52;15.07;;;6.80;49.30;;;;;;5060197;28;20339;-87
2022/03/04 11:44:18;;;;;;;23.50;14.38;;;6.30;48.60;;;;;;5066070;28;20210;-87
2022/03/04 11:46:51;;;;;;;23.98;15.70;;;6.60;51.60;;;;;;5067267;28;20195;-87
2022/03/04 11:49:47;;;;;;;24.25;13.63;;;6.50;46.20;;;;;;5067360;28;20195;-87
2022/03/04 11:52:24;;;;;;;16.48;13.15;;;6.50;52.60;;;;;;5065505;28;20222;-87
2022/03/04 11:55:20;;;;;;;22.63;16.13;;;6.40;46.30;;;;;;5066662;28;20245;-87
2022/03/04 11:57:49;;;;;;;21.40;14.90;;;6.50;47.70;;;;;;5068102;28;20203;-86
2022/03/04 12:00:27;;;;;;;22.02;15.18;;;6.50;52.50;;;;;;5070499;28;20686;-86
2022/03/04 12:02:56;;;;;;;23.52;14.43;;;6.30;45.30;;;;;;5071183;28;20199;-87
2022/03/04 12:05:30;;;;;;;25.13;15.85;;;6.40;46.50;;;;;;5070978;28;20291;-87
2022/03/04 12:08:10;;;;;;;21.35;15.35;;;6.40;47.80;;;;;;5070438;28;20209;-86
2022/03/04 12:10:47;;;;;;;29.35;17.52;;;6.50;55.60;;;;;;5070547;28;20285;-87
2022/03/04 12:13:18;;;;;;;21.25;15.13;;;6.70;49.00;;;;;;5071698;28;20248;-87
2022/03/04 12:15:49;;;;;;;22.58;15.80;;;6.70;49.00;;;;;;5071160;28;20199;-87
2022/03/04 12:18:18;;;;;;;19.20;15.23;;;6.70;48.90;;;;;;5071573;28;20272;-87
2022/03/04 12:21:13;;;;;;;23.45;17.38;;;6.70;48.40;;;;;;5070885;28;20226;-87
2022/03/04 12:23:47;;;;;;;26.40;16.35;;;6.70;48.80;;;;;;5054622;28;20195;-86
2022/03/04 12:26:26;;;;;;;18.45;15.32;;;6.70;56.10;;;;;;5071076;28;20226;-86
2022/03/04 12:29:02;;;;;;;21.48;15.95;;;7.00;49.90;;;;;;5070733;28;20551;-87
2022/03/04 12:31:33;;;;;;;29.70;15.75;;;6.90;48.20;;;;;;5070407;28;20198;-87
2022/03/04 12:34:01;;;;;;;21.45;14.18;;;7.00;48.20;;;;;;5071245;28;20416;-87
2022/03/04 12:36:29;;;;;;;18.73;14.20;;;7.00;48.00;;;;;;5070104;28;20195;-87
2022/03/04 12:38:58;;;;;;;24.40;15.88;;;7.10;47.40;;;;;;5066489;28;20219;-86
2022/03/04 12:41:29;;;;;;;20.23;15.30;;;7.10;46.70;;;;;;5059165;28;20262;-87
2022/03/04 12:43:57;;;;;;;19.70;14.90;;;7.10;47.40;;;;;;5069607;28;20200;-87
2022/03/04 12:46:26;;;;;;;24.48;16.88;;;7.20;47.90;;;;;;5069622;28;20214;-87
2022/03/04 12:48:54;;;;;;;28.73;15.55;;;7.10;46.90;;;;;;5071161;28;20206;-86
2022/03/04 12:51:29;;;;;;;17.90;15.65;;;7.20;47.10;;;;;;5070743;28;20206;-87
2022/03/04 12:53:58;;;;;;;18.27;14.70;;;7.20;46.50;;;;;;5070560;28;20286;-87
2022/03/04 12:56:27;;;;;;;20.90;16.05;;;7.20;45.90;;;;;;5070051;28;20195;-87
2022/03/04 12:58:56;;;;;;;20.38;14.52;;;7.20;46.70;;;;;;5070726;28;20269;-87
2022/03/04 13:01:24;;;;;;;22.10;13.45;;;7.30;45.80;;;;;;5070141;28;20255;-87
2022/03/04 13:03:52;;;;;;;17.02;13.25;;;7.50;50.90;;;;;;5060215;28;20204;-86
2022/03/04 13:06:20;;;;;;;24.02;13.35;;;7.40;45.10;;;;;;5070108;28;20531;-87
2022/03/04 13:08:53;;;;;;;25.08;15.73;;;7.30;46.00;;;;;;5069347;28;20707;-88
2022/03/04 13:11:21;;;;;;;17.90;13.25;;;7.50;45.30;;;;;;5070659;28;20527;-88